Time;durP1;ratioP1;P1;durP2;ratioP2;P2;SDS_P1;SDS_P2;PMS_P1;PMS_P2;Temp;Humidity;BMP_temperature;BMP_pressure;BME280_temperature;BME280_humidity;BME280_pressure;Samples;Min_cycle;Max_cycle;Signal;HPM_P1;HPM_P2
2023/03/07 00:00:50;;;;;;;28.77;16.10;;;2.10;99.90;;;;;;4977936;28;20081;-70
2023/03/07 00:03:19;;;;;;;29.45;16.58;;;2.20;99.90;;;;;;5011708;28;20395;-70
2023/03/07 00:05:46;;;;;;;32.55;17.20;;;2.10;99.90;;;;;;4994967;28;20764;-70
2023/03/07 00:08:12;;;;;;;33.30;17.83;;;2.20;99.90;;;;;;4994121;28;20072;-70
2023/03/07 00:10:38;;;;;;;28.45;15.40;;;2.20;99.90;;;;;;5009168;28;20077;-70
2023/03/07 00:13:04;;;;;;;31.08;16.50;;;2.10;99.90;;;;;;4994334;28;20050;-70
2023/03/07 00:15:29;;;;;;;32.38;17.35;;;2.20;99.90;;;;;;4998013;28;20760;-70
2023/03/07 00:17:56;;;;;;;30.67;17.00;;;2.20;99.90;;;;;;4994410;28;20131;-70
2023/03/07 00:20:22;;;;;;;31.25;16.40;;;2.20;99.90;;;;;;4999007;28;20482;-70
2023/03/07 00:22:47;;;;;;;30.63;16.75;;;2.20;99.90;;;;;;4994831;28;20115;-70
2023/03/07 00:25:16;;;;;;;29.95;16.52;;;2.30;99.90;;;;;;4997541;28;20370;-70
2023/03/07 00:27:42;;;;;;;32.25;16.80;;;2.20;99.90;;;;;;4995435;28;20046;-70
2023/03/07 00:30:11;;;;;;;31.45;16.80;;;2.20;99.90;;;;;;4994014;28;20119;-70
2023/03/07 00:32:37;;;;;;;30.92;16.35;;;2.20;99.90;;;;;;5010923;28;20049;-70
2023/03/07 00:35:05;;;;;;;32.28;17.25;;;2.20;99.90;;;;;;4975446;28;20050;-70
2023/03/07 00:37:30;;;;;;;32.97;16.83;;;2.30;99.90;;;;;;5011281;28;20049;-70
2023/03/07 00:39:56;;;;;;;32.85;17.63;;;2.40;99.90;;;;;;5011199;28;20046;-71
2023/03/07 00:42:22;;;;;;;31.83;17.05;;;2.40;99.90;;;;;;4993506;28;20041;-71
2023/03/07 00:44:47;;;;;;;33.85;16.52;;;2.50;99.90;;;;;;5010148;28;20065;-70
2023/03/07 00:47:13;;;;;;;32.60;17.05;;;2.60;99.90;;;;;;5009735;28;20158;-70
2023/03/07 00:49:39;;;;;;;33.67;17.50;;;2.60;99.90;;;;;;4995557;28;20181;-70
2023/03/07 00:52:05;;;;;;;39.75;17.55;;;2.70;99.90;;;;;;5009162;28;20045;-70
2023/03/07 00:54:30;;;;;;;30.63;16.55;;;2.80;99.90;;;;;;5009846;28;20050;-70
2023/03/07 00:56:56;;;;;;;34.78;20.40;;;2.80;99.90;;;;;;4977436;28;20103;-71
2023/03/07 00:59:22;;;;;;;31.98;16.23;;;2.90;99.90;;;;;;4992710;28;20046;-70
2023/03/07 01:01:47;;;;;;;30.13;16.58;;;3.00;99.90;;;;;;5009583;28;20154;-70
2023/03/07 01:04:13;;;;;;;31.20;16.80;;;3.00;99.90;;;;;;5010141;28;20047;-70
2023/03/07 01:06:39;;;;;;;29.23;16.60;;;3.10;99.90;;;;;;4989217;28;20056;-69
2023/03/07 01:09:06;;;;;;;32.20;17.13;;;3.00;99.90;;;;;;4993359;28;20065;-70
2023/03/07 01:11:32;;;;;;;32.17;17.55;;;3.00;99.90;;;;;;4976764;28;20054;-71
2023/03/07 01:13:58;;;;;;;32.47;17.95;;;3.00;99.90;;;;;;4994028;28;20045;-70
2023/03/07 01:16:26;;;;;;;31.23;17.15;;;3.10;99.90;;;;;;5003852;28;20058;-72
2023/03/07 01:18:57;;;;;;;30.95;18.40;;;3.10;99.90;;;;;;4993356;28;20061;-71
2023/03/07 01:21:25;;;;;;;30.00;16.95;;;3.10;99.90;;;;;;4994718;28;20077;-71
2023/03/07 01:23:51;;;;;;;31.35;17.20;;;3.10;99.90;;;;;;5000159;28;20641;-70
2023/03/07 01:26:28;;;;;;;33.10;19.05;;;3.10;99.90;;;;;;5015332;28;20125;-71
2023/03/07 01:28:55;;;;;;;31.45;16.35;;;3.10;99.90;;;;;;4984031;28;20045;-71
2023/03/07 01:31:21;;;;;;;31.52;15.73;;;3.10;99.90;;;;;;4983873;28;20046;-70
2023/03/07 01:33:47;;;;;;;31.30;18.90;;;3.10;99.90;;;;;;5016005;28;20110;-70
2023/03/07 01:36:24;;;;;;;31.55;15.48;;;3.10;99.90;;;;;;5016311;28;20099;-71
2023/03/07 01:38:53;;;;;;;30.10;16.05;;;3.10;99.90;;;;;;5019440;28;20063;-70
2023/03/07 01:41:19;;;;;;;30.40;16.30;;;3.00;99.90;;;;;;4991224;28;20057;-70
2023/03/07 01:43:45;;;;;;;30.33;15.25;;;3.00;99.90;;;;;;4999520;28;20068;-70
2023/03/07 01:46:17;;;;;;;33.83;17.20;;;3.10;99.90;;;;;;5021616;28;20045;-70
2023/03/07 01:48:50;;;;;;;30.63;15.82;;;3.00;99.90;;;;;;5016696;28;20458;-70
2023/03/07 01:51:16;;;;;;;34.53;16.45;;;2.90;99.90;;;;;;5012511;28;20053;-69
2023/03/07 01:53:41;;;;;;;29.08;15.00;;;3.00;99.90;;;;;;4983960;28;20057;-71
2023/03/07 01:56:07;;;;;;;32.60;17.17;;;3.00;99.90;;;;;;4997894;28;20082;-71
2023/03/07 01:58:35;;;;;;;32.88;16.02;;;2.90;99.90;;;;;;4981672;28;20847;-70
2023/03/07 02:01:01;;;;;;;33.70;16.15;;;2.90;99.90;;;;;;5015528;28;20121;-70
2023/03/07 02:03:36;;;;;;;32.50;16.15;;;3.00;99.90;;;;;;4983476;28;20415;-70
2023/03/07 02:06:04;;;;;;;30.27;15.38;;;2.90;99.90;;;;;;5015581;28;20107;-71
2023/03/07 02:08:32;;;;;;;30.67;15.95;;;2.90;99.90;;;;;;5001318;28;20077;-70
2023/03/07 02:10:58;;;;;;;28.95;14.93;;;2.80;99.90;;;;;;5000059;28;20796;-71
2023/03/07 02:13:23;;;;;;;29.65;15.57;;;2.80;99.90;;;;;;5014898;28;20049;-72
2023/03/07 02:15:51;;;;;;;29.35;14.55;;;2.80;99.90;;;;;;4983590;28;20104;-70
2023/03/07 02:18:23;;;;;;;32.50;16.40;;;2.80;99.90;;;;;;4999592;28;20069;-71
2023/03/07 02:21:08;;;;;;;35.97;20.67;;;2.80;99.90;;;;;;5001216;28;20133;-71
2023/03/07 02:23:55;;;;;;;31.58;15.25;;;2.70;99.90;;;;;;5017752;28;20064;-70
2023/03/07 02:26:33;;;;;;;34.45;16.40;;;2.70;99.90;;;;;;5011644;28;20414;-71
2023/03/07 02:28:59;;;;;;;36.97;18.77;;;2.70;99.90;;;;;;5022407;28;20441;-71
2023/03/07 02:31:25;;;;;;;35.15;18.30;;;2.70;99.90;;;;;;5021138;28;20041;-70
2023/03/07 02:33:50;;;;;;;39.38;19.75;;;2.60;99.90;;;;;;5008246;28;20058;-71
2023/03/07 02:36:19;;;;;;;36.63;19.85;;;2.60;99.90;;;;;;4997725;28;20413;-71
2023/03/07 02:38:45;;;;;;;37.22;18.58;;;2.60;99.90;;;;;;5011989;28;20073;-70
2023/03/07 02:41:11;;;;;;;39.53;18.08;;;2.60;99.90;;;;;;4996454;28;20046;-70
2023/03/07 02:43:37;;;;;;;36.88;18.00;;;2.60;99.90;;;;;;5011699;28;20480;-70
2023/03/07 02:46:03;;;;;;;36.58;18.13;;;2.60;99.90;;;;;;5012935;28;20122;-70
2023/03/07 02:48:29;;;;;;;38.33;19.42;;;2.60;99.90;;;;;;4980084;28;20056;-70
2023/03/07 02:50:55;;;;;;;30.40;15.82;;;2.60;99.90;;;;;;4995506;28;20049;-71
2023/03/07 02:53:21;;;;;;;35.45;16.95;;;2.60;99.90;;;;;;5005364;28;20108;-70
2023/03/07 02:55:47;;;;;;;38.55;20.45;;;2.60;99.90;;;;;;4994914;28;20157;-70
2023/03/07 02:58:12;;;;;;;32.53;15.95;;;2.60;99.90;;;;;;4992932;28;20441;-71
2023/03/07 03:00:38;;;;;;;33.47;14.13;;;2.60;99.90;;;;;;4994892;28;20060;-70
2023/03/07 03:03:04;;;;;;;34.30;15.57;;;2.70;99.90;;;;;;5012216;28;20738;-71
2023/03/07 03:05:30;;;;;;;33.97;16.90;;;2.60;99.90;;;;;;4992069;28;20054;-72
2023/03/07 03:07:55;;;;;;;32.78;15.65;;;2.60;99.90;;;;;;4994189;28;20808;-72
2023/03/07 03:10:21;;;;;;;35.20;15.35;;;2.60;99.90;;;;;;4995848;28;20065;-70
2023/03/07 03:12:47;;;;;;;30.48;16.55;;;2.50;99.90;;;;;;5012496;28;20474;-71
2023/03/07 03:15:13;;;;;;;33.70;16.52;;;2.50;99.90;;;;;;5010263;28;20128;-71
2023/03/07 03:17:39;;;;;;;32.60;16.33;;;2.50;99.90;;;;;;5013559;28;20542;-72
2023/03/07 03:20:10;;;;;;;33.08;17.15;;;2.50;99.90;;;;;;4995597;28;20454;-70
2023/03/07 03:22:37;;;;;;;33.38;16.02;;;2.50;99.90;;;;;;4996615;28;20049;-70
2023/03/07 03:25:05;;;;;;;28.73;15.30;;;2.40;99.90;;;;;;4995513;28;20046;-71
2023/03/07 03:27:31;;;;;;;29.38;14.50;;;2.50;99.90;;;;;;5011769;28;20125;-70
2023/03/07 03:29:59;;;;;;;32.08;14.38;;;2.40;99.90;;;;;;5016068;28;20049;-71
2023/03/07 03:32:26;;;;;;;28.58;15.15;;;2.40;99.90;;;;;;4995614;28;20436;-71
2023/03/07 03:34:51;;;;;;;31.05;16.27;;;2.40;99.90;;;;;;5012272;28;20046;-71
2023/03/07 03:37:17;;;;;;;30.92;15.60;;;2.30;99.90;;;;;;5011257;28;20046;-71
2023/03/07 03:39:43;;;;;;;33.22;17.20;;;2.30;99.90;;;;;;5012921;28;20128;-71
2023/03/07 03:42:09;;;;;;;29.27;14.90;;;2.30;99.90;;;;;;5013177;28;20073;-71
2023/03/07 03:44:34;;;;;;;26.85;13.40;;;2.30;99.90;;;;;;4995155;28;20052;-72
2023/03/07 03:47:00;;;;;;;28.85;15.93;;;2.30;99.90;;;;;;4976263;28;20054;-72
2023/03/07 03:49:26;;;;;;;31.30;17.17;;;2.30;99.90;;;;;;4986033;28;20042;-71
2023/03/07 03:51:52;;;;;;;32.33;15.05;;;2.30;99.90;;;;;;5011166;28;20076;-71
2023/03/07 03:54:18;;;;;;;28.20;13.95;;;2.30;99.90;;;;;;4995794;28;20046;-72
2023/03/07 03:56:44;;;;;;;27.42;15.43;;;2.40;99.90;;;;;;5016078;28;20056;-71
2023/03/07 03:59:09;;;;;;;28.25;13.88;;;2.20;99.90;;;;;;4986346;28;20054;-70
2023/03/07 04:01:35;;;;;;;28.33;14.50;;;2.30;99.90;;;;;;4981190;28;20049;-72
2023/03/07 04:04:01;;;;;;;28.15;13.80;;;2.30;99.90;;;;;;5011936;28;20113;-71
2023/03/07 04:06:28;;;;;;;27.02;13.38;;;2.30;99.90;;;;;;5012724;28;20042;-70
2023/03/07 04:08:54;;;;;;;27.38;14.00;;;2.30;99.90;;;;;;5011059;28;20123;-70
2023/03/07 04:11:20;;;;;;;23.52;13.32;;;2.30;99.90;;;;;;4994902;28;20065;-73
2023/03/07 04:13:48;;;;;;;24.23;13.38;;;2.30;99.90;;;;;;4993560;28;20678;-71
2023/03/07 04:16:13;;;;;;;25.00;12.50;;;2.30;99.90;;;;;;4994912;28;20125;-71
2023/03/07 04:18:39;;;;;;;22.25;11.93;;;2.30;99.90;;;;;;4976615;28;20449;-70
2023/03/07 04:21:06;;;;;;;24.38;12.43;;;2.40;99.90;;;;;;4978527;28;20054;-71
2023/03/07 04:23:32;;;;;;;26.45;13.10;;;2.40;99.90;;;;;;5017423;28;20042;-72
2023/03/07 04:25:59;;;;;;;24.67;11.55;;;2.40;99.90;;;;;;4978553;28;20112;-71
2023/03/07 04:28:26;;;;;;;26.15;13.40;;;2.40;99.90;;;;;;5010305;28;20045;-70
2023/03/07 04:30:53;;;;;;;23.85;12.20;;;2.40;99.90;;;;;;4997690;28;20045;-71
2023/03/07 04:33:19;;;;;;;24.80;11.70;;;2.40;99.90;;;;;;5015932;28;20079;-71
2023/03/07 04:35:45;;;;;;;24.10;12.32;;;2.40;99.90;;;;;;4994341;28;20127;-70
2023/03/07 04:38:11;;;;;;;23.45;11.93;;;2.40;99.90;;;;;;5014971;28;20474;-70
2023/03/07 04:40:37;;;;;;;24.23;12.23;;;2.40;99.90;;;;;;5013975;28;20045;-70
2023/03/07 04:43:04;;;;;;;25.23;12.18;;;2.40;99.90;;;;;;4993888;28;20116;-70
2023/03/07 04:45:33;;;;;;;22.88;12.93;;;2.40;99.90;;;;;;5010234;28;20038;-70
2023/03/07 04:47:59;;;;;;;22.27;12.30;;;2.50;99.90;;;;;;5006254;28;20068;-70
2023/03/07 04:50:24;;;;;;;23.75;12.93;;;2.40;99.90;;;;;;5010633;28;20050;-71
2023/03/07 04:52:50;;;;;;;24.23;11.68;;;2.40;99.90;;;;;;4999034;28;20451;-70
2023/03/07 04:55:16;;;;;;;25.98;13.20;;;2.50;99.90;;;;;;5004746;28;20116;-70
2023/03/07 04:57:42;;;;;;;23.10;12.30;;;2.40;99.90;;;;;;5010144;28;20045;-71
2023/03/07 05:00:08;;;;;;;23.75;14.15;;;2.60;99.90;;;;;;4996833;28;20046;-71
2023/03/07 05:02:37;;;;;;;24.63;12.30;;;2.50;99.90;;;;;;4988031;28;20046;-71
2023/03/07 05:05:03;;;;;;;26.33;14.15;;;2.50;99.90;;;;;;4976980;28;20409;-70
2023/03/07 05:07:29;;;;;;;24.63;13.43;;;2.40;99.90;;;;;;5010577;28;20103;-70
2023/03/07 05:09:55;;;;;;;22.35;12.65;;;2.40;99.90;;;;;;4993218;28;20397;-69
2023/03/07 05:12:21;;;;;;;24.88;12.77;;;2.40;99.90;;;;;;4995222;28;20056;-70
2023/03/07 05:14:47;;;;;;;25.45;14.68;;;2.50;99.90;;;;;;4977719;28;20076;-70
2023/03/07 05:17:14;;;;;;;26.75;13.18;;;2.40;99.90;;;;;;4993981;28;20046;-70
2023/03/07 05:19:40;;;;;;;26.02;13.93;;;2.50;99.90;;;;;;4977561;28;20038;-70
2023/03/07 05:22:06;;;;;;;22.60;13.00;;;2.50;99.90;;;;;;5011767;28;20718;-70
2023/03/07 05:24:32;;;;;;;22.67;11.57;;;2.50;99.90;;;;;;5014664;28;20431;-71
2023/03/07 05:26:58;;;;;;;24.17;12.13;;;2.50;99.90;;;;;;4992711;28;20046;-69
2023/03/07 05:29:24;;;;;;;23.58;13.05;;;2.50;99.90;;;;;;5009876;28;20556;-71
2023/03/07 05:31:50;;;;;;;22.92;12.27;;;2.60;99.90;;;;;;4996913;28;20771;-70
2023/03/07 05:34:15;;;;;;;23.92;12.95;;;2.60;99.90;;;;;;5019582;28;20153;-71
2023/03/07 05:36:42;;;;;;;22.40;12.63;;;2.60;99.90;;;;;;5004871;28;20054;-71
2023/03/07 05:39:08;;;;;;;24.08;12.68;;;2.60;99.90;;;;;;5012704;28;20119;-71
2023/03/07 05:41:34;;;;;;;21.13;11.82;;;2.70;99.90;;;;;;4994054;28;20088;-72
2023/03/07 05:43:59;;;;;;;22.27;12.23;;;2.70;99.90;;;;;;4980004;28;20073;-71
2023/03/07 05:46:25;;;;;;;21.80;11.70;;;2.70;99.90;;;;;;4990736;28;20072;-70
2023/03/07 05:48:51;;;;;;;20.92;11.40;;;2.70;99.90;;;;;;5015523;28;20109;-71
2023/03/07 05:51:17;;;;;;;23.30;12.77;;;2.70;99.90;;;;;;4973716;28;20487;-70
2023/03/07 05:53:42;;;;;;;25.38;12.35;;;2.70;99.90;;;;;;4995096;28;20895;-70
2023/03/07 05:56:08;;;;;;;25.05;13.18;;;2.80;99.90;;;;;;5010471;28;20478;-70
2023/03/07 05:58:34;;;;;;;23.77;12.57;;;2.70;99.90;;;;;;4992971;28;20050;-69
2023/03/07 06:01:03;;;;;;;25.60;13.35;;;2.70;99.90;;;;;;4996023;28;20053;-70
2023/03/07 06:03:29;;;;;;;21.60;11.95;;;2.70;99.90;;;;;;5010524;28;20104;-70
2023/03/07 06:05:55;;;;;;;21.90;12.45;;;2.70;99.90;;;;;;5008835;28;20067;-70
2023/03/07 06:08:21;;;;;;;24.40;12.73;;;2.70;99.90;;;;;;5019567;28;20042;-70
2023/03/07 06:10:51;;;;;;;24.63;12.25;;;2.70;99.90;;;;;;4980388;28;20096;-70
2023/03/07 06:13:19;;;;;;;25.90;12.88;;;2.60;99.90;;;;;;4996260;28;20873;-71
2023/03/07 06:15:48;;;;;;;23.73;12.70;;;2.80;99.90;;;;;;4993255;28;20046;-70
2023/03/07 06:18:14;;;;;;;25.50;12.88;;;2.80;99.90;;;;;;5020434;28;20675;-70
2023/03/07 06:20:39;;;;;;;28.98;12.55;;;2.60;99.90;;;;;;5013214;28;20056;-70
2023/03/07 06:23:05;;;;;;;25.67;13.60;;;2.50;99.90;;;;;;5013109;28;20074;-70
2023/03/07 06:25:31;;;;;;;25.67;13.20;;;2.30;99.90;;;;;;5007785;28;20486;-70
2023/03/07 06:27:59;;;;;;;20.52;11.50;;;2.10;99.90;;;;;;4996906;28;20046;-70
2023/03/07 06:30:25;;;;;;;;;;;2.00;99.90;;;;;;4965719;28;20638;-70
2023/03/07 06:32:51;;;;;;;24.58;12.35;;;2.10;99.90;;;;;;5015834;28;20004;-70
2023/03/07 06:35:17;;;;;;;17.15;9.70;;;2.00;99.90;;;;;;5012577;28;20049;-70
2023/03/07 06:37:42;;;;;;;14.15;8.18;;;2.10;99.90;;;;;;4984960;28;20362;-70
2023/03/07 06:40:09;;;;;;;13.23;6.95;;;2.10;99.90;;;;;;5013972;28;20498;-70
2023/03/07 06:42:35;;;;;;;13.98;6.72;;;2.20;99.90;;;;;;5008683;28;20038;-70
2023/03/07 06:45:01;;;;;;;13.82;6.07;;;2.20;99.90;;;;;;5012823;28;20054;-71
2023/03/07 06:47:26;;;;;;;13.48;6.72;;;2.20;99.90;;;;;;5012860;28;20442;-71
2023/03/07 06:49:52;;;;;;;8.77;5.28;;;2.30;99.90;;;;;;5009112;28;20046;-70
2023/03/07 06:52:18;;;;;;;9.27;5.50;;;2.20;99.90;;;;;;5012805;28;20421;-70
2023/03/07 06:54:44;;;;;;;11.43;6.47;;;2.20;99.90;;;;;;4996496;28;20055;-70
2023/03/07 06:57:09;;;;;;;9.38;5.65;;;2.30;99.90;;;;;;4991752;28;20140;-71
2023/03/07 06:59:35;;;;;;;8.50;4.75;;;2.20;99.90;;;;;;5012931;28;20115;-70
2023/03/07 07:02:02;;;;;;;8.90;4.47;;;2.20;99.90;;;;;;5010979;28;20155;-71
2023/03/07 07:04:28;;;;;;;9.02;5.10;;;2.20;99.90;;;;;;4998533;28;20053;-70
2023/03/07 07:06:53;;;;;;;11.60;3.33;;;2.20;99.90;;;;;;4991855;28;20474;-70
2023/03/07 07:09:19;;;;;;;6.30;3.33;;;2.20;99.90;;;;;;4978693;28;20057;-70
2023/03/07 07:11:45;;;;;;;9.68;3.70;;;2.20;99.90;;;;;;4976397;28;20057;-71
2023/03/07 07:14:11;;;;;;;7.45;3.10;;;2.20;99.90;;;;;;5011063;28;20445;-70
2023/03/07 07:16:36;;;;;;;5.28;3.20;;;2.20;99.90;;;;;;5012181;28;20041;-71
2023/03/07 07:19:02;;;;;;;8.73;3.15;;;2.20;99.90;;;;;;5011091;28;20046;-70
2023/03/07 07:21:28;;;;;;;8.32;3.72;;;2.20;99.90;;;;;;4994342;28;20054;-70
2023/03/07 07:23:57;;;;;;;11.35;4.72;;;2.20;99.90;;;;;;4992437;28;20662;-70
2023/03/07 07:26:23;;;;;;;8.73;4.35;;;2.30;99.90;;;;;;5011124;28;20049;-71
2023/03/07 07:28:50;;;;;;;8.55;4.55;;;2.30;99.90;;;;;;5011530;28;20045;-70
2023/03/07 07:31:16;;;;;;;7.20;4.28;;;2.30;99.90;;;;;;5004731;28;21275;-71
2023/03/07 07:33:41;;;;;;;11.30;5.35;;;2.40;99.90;;;;;;4969329;28;20136;-71
2023/03/07 07:36:08;;;;;;;11.30;5.88;;;2.40;99.90;;;;;;5011240;28;20052;-72
2023/03/07 07:38:34;;;;;;;12.98;6.78;;;2.40;99.90;;;;;;4998145;28;20060;-72
2023/03/07 07:41:01;;;;;;;11.25;5.68;;;2.50;99.90;;;;;;4995027;28;20046;-72
2023/03/07 07:43:26;;;;;;;11.13;5.20;;;2.50;99.90;;;;;;5012203;28;20092;-71
2023/03/07 07:45:52;;;;;;;11.18;5.40;;;2.50;99.90;;;;;;5010945;28;20343;-72
2023/03/07 07:48:18;;;;;;;10.77;6.00;;;2.50;99.90;;;;;;4998851;28;20041;-74
2023/03/07 07:50:44;;;;;;;8.73;4.72;;;2.50;99.90;;;;;;4995042;28;20605;-71
2023/03/07 07:53:09;;;;;;;7.18;3.33;;;2.60;99.90;;;;;;4990086;28;20053;-72
2023/03/07 07:55:35;;;;;;;6.75;3.40;;;2.70;99.90;;;;;;5012165;28;20462;-71
2023/03/07 07:58:01;;;;;;;5.78;3.03;;;2.70;99.90;;;;;;4978809;28;20046;-71
2023/03/07 08:00:27;;;;;;;5.78;2.92;;;2.70;99.90;;;;;;4989716;28;20061;-71
2023/03/07 08:02:53;;;;;;;9.43;3.30;;;2.80;99.90;;;;;;4994408;28;20068;-70
2023/03/07 08:05:19;;;;;;;5.07;1.90;;;2.80;99.90;;;;;;5005928;28;20091;-72
2023/03/07 08:07:45;;;;;;;4.53;2.40;;;2.70;99.90;;;;;;4998801;28;20681;-71
2023/03/07 08:10:14;;;;;;;10.38;2.70;;;2.70;99.90;;;;;;5020126;28;20061;-72
2023/03/07 08:12:43;;;;;;;5.78;2.08;;;2.70;99.90;;;;;;4995571;28;20204;-71
2023/03/07 08:15:10;;;;;;;5.10;2.15;;;2.70;99.90;;;;;;5007746;28;20049;-70
2023/03/07 08:17:35;;;;;;;7.07;1.98;;;2.60;99.90;;;;;;5010742;28;20632;-71
2023/03/07 08:20:07;;;;;;;7.60;2.40;;;2.70;99.90;;;;;;4994234;28;20156;-71
2023/03/07 08:22:33;;;;;;;4.47;1.77;;;2.70;99.90;;;;;;4995350;28;20080;-70
2023/03/07 08:24:59;;;;;;;5.82;2.25;;;2.70;99.90;;;;;;4998044;28;20041;-72
2023/03/07 08:27:26;;;;;;;8.02;2.38;;;2.70;99.90;;;;;;5010598;28;20053;-70
2023/03/07 08:29:52;;;;;;;5.40;2.38;;;2.80;99.90;;;;;;5007108;28;20056;-70
2023/03/07 08:32:17;;;;;;;7.55;2.58;;;2.70;99.90;;;;;;5009406;28;20046;-69
2023/03/07 08:34:43;;;;;;;15.30;3.08;;;2.70;99.90;;;;;;5010864;28;20073;-71
2023/03/07 08:37:09;;;;;;;8.23;3.10;;;2.60;99.90;;;;;;5012057;28;20348;-72
2023/03/07 08:39:35;;;;;;;6.30;3.15;;;2.60;99.90;;;;;;4977785;28;20093;-71
2023/03/07 08:42:01;;;;;;;8.63;3.30;;;2.60;99.90;;;;;;5008275;28;20115;-71
2023/03/07 08:44:26;;;;;;;10.05;3.20;;;2.60;99.90;;;;;;4993862;28;20192;-71
2023/03/07 08:46:53;;;;;;;6.80;3.05;;;2.60;99.90;;;;;;4994044;28;20041;-72
2023/03/07 08:49:19;;;;;;;4.72;2.53;;;2.50;99.90;;;;;;4989942;28;20057;-73
2023/03/07 08:51:48;;;;;;;5.70;2.08;;;2.50;99.90;;;;;;4994835;28;20050;-72
2023/03/07 08:54:17;;;;;;;6.95;2.15;;;2.40;99.90;;;;;;4973236;28;20050;-72
2023/03/07 08:56:42;;;;;;;5.32;2.22;;;2.30;99.90;;;;;;4984977;28;20800;-71
2023/03/07 08:59:08;;;;;;;2.72;1.40;;;2.30;99.90;;;;;;4979796;28;20054;-73
2023/03/07 09:01:34;;;;;;;3.35;2.05;;;2.30;99.90;;;;;;5011726;28;20158;-71
2023/03/07 09:04:00;;;;;;;5.10;1.67;;;2.30;99.90;;;;;;5011932;28;20045;-71
2023/03/07 09:06:25;;;;;;;4.70;2.25;;;2.30;99.90;;;;;;4993439;28;20051;-71
2023/03/07 09:08:51;;;;;;;5.30;2.25;;;2.20;99.90;;;;;;4998448;28;20083;-71
2023/03/07 09:11:20;;;;;;;5.78;2.17;;;2.20;99.90;;;;;;4980047;28;20146;-72
2023/03/07 09:13:46;;;;;;;3.17;1.73;;;2.20;99.90;;;;;;4989294;28;20069;-70
2023/03/07 09:16:11;;;;;;;5.88;2.10;;;2.20;99.90;;;;;;4994505;28;20049;-71
2023/03/07 09:18:37;;;;;;;5.15;2.28;;;2.20;99.90;;;;;;5012609;28;20045;-71
2023/03/07 09:21:03;;;;;;;5.88;2.38;;;2.10;99.90;;;;;;5010090;28;20046;-70
2023/03/07 09:23:29;;;;;;;7.05;2.47;;;2.10;99.90;;;;;;4988997;28;20423;-70
2023/03/07 09:25:59;;;;;;;4.72;2.25;;;2.10;99.90;;;;;;4991616;28;20041;-70
2023/03/07 09:28:25;;;;;;;5.53;1.90;;;2.20;99.90;;;;;;4990960;28;20108;-71
2023/03/07 09:30:50;;;;;;;5.22;2.50;;;2.20;99.90;;;;;;4977687;28;20049;-71
2023/03/07 09:33:16;;;;;;;6.90;2.30;;;2.20;99.90;;;;;;5008892;28;20163;-70
2023/03/07 09:35:42;;;;;;;4.55;1.83;;;2.20;99.90;;;;;;5009986;28;20041;-71
2023/03/07 09:38:09;;;;;;;8.15;3.10;;;2.30;99.90;;;;;;4994559;28;20054;-71
2023/03/07 09:40:35;;;;;;;7.68;3.33;;;2.40;99.90;;;;;;5012665;28;20186;-70
2023/03/07 09:43:19;;;;;;;4.93;1.70;;;2.40;99.90;;;;;;5011261;28;20120;-70
2023/03/07 09:46:07;;;;;;;5.70;2.30;;;2.50;99.90;;;;;;5013870;28;20128;-72
2023/03/07 09:48:57;;;;;;;5.85;2.80;;;2.70;99.90;;;;;;4996786;28;20037;-70
2023/03/07 09:51:35;;;;;;;4.25;1.75;;;2.70;99.90;;;;;;4999577;28;20062;-75
2023/03/07 09:54:23;;;;;;;6.28;2.03;;;3.30;99.90;;;;;;4982763;28;20562;-75
2023/03/07 09:56:54;;;;;;;5.18;1.98;;;3.60;99.90;;;;;;5015972;28;20056;-75
2023/03/07 09:59:34;;;;;;;3.10;1.60;;;3.40;99.90;;;;;;5009433;28;20053;-71
2023/03/07 10:02:27;;;;;;;3.75;2.05;;;3.30;99.90;;;;;;5013457;28;20056;-70
2023/03/07 10:05:30;;;;;;;5.15;1.83;;;3.00;99.90;;;;;;5013543;28;20080;-70
2023/03/07 10:07:56;;;;;;;4.40;1.88;;;2.90;99.90;;;;;;5010737;28;20037;-70
2023/03/07 10:10:44;;;;;;;11.02;2.15;;;2.80;99.90;;;;;;4979481;28;20092;-71
2023/03/07 10:13:36;;;;;;;8.43;2.03;;;2.90;99.90;;;;;;4991806;28;20477;-70
2023/03/07 10:16:24;;;;;;;5.35;1.70;;;2.90;99.90;;;;;;4972177;28;20482;-70
2023/03/07 10:19:08;;;;;;;5.63;1.70;;;2.90;99.90;;;;;;4997024;28;20053;-71
2023/03/07 10:21:48;;;;;;;6.10;1.60;;;2.80;99.90;;;;;;5012832;28;20111;-73
2023/03/07 10:24:30;;;;;;;3.60;1.50;;;2.80;99.90;;;;;;4995397;28;20057;-72
2023/03/07 10:27:08;;;;;;;5.32;1.50;;;2.80;99.90;;;;;;4995231;28;20049;-72
2023/03/07 10:29:55;;;;;;;8.55;1.60;;;2.70;99.90;;;;;;5012369;28;20373;-74
2023/03/07 10:32:49;;;;;;;5.88;1.50;;;2.70;99.90;;;;;;4997176;28;20060;-71
2023/03/07 10:35:19;;;;;;;6.25;1.67;;;2.50;99.90;;;;;;4996873;28;20045;-71
2023/03/07 10:38:24;;;;;;;4.53;1.55;;;2.50;99.90;;;;;;5012853;28;20060;-70
2023/03/07 10:40:57;;;;;;;4.25;1.40;;;2.50;99.90;;;;;;4994669;28;20057;-70
2023/03/07 10:43:30;;;;;;;6.50;1.20;;;2.30;99.90;;;;;;5012004;28;20385;-74
2023/03/07 10:46:16;;;;;;;3.05;1.48;;;2.20;99.90;;;;;;4979980;28;20038;-71
2023/03/07 10:49:12;;;;;;;4.45;1.15;;;2.10;99.90;;;;;;4996101;28;20045;-72
2023/03/07 10:51:47;;;;;;;6.40;1.25;;;2.10;99.90;;;;;;4990149;28;20118;-72
2023/03/07 10:54:16;;;;;;;6.35;1.95;;;2.00;99.90;;;;;;5012881;28;20369;-71
2023/03/07 10:57:07;;;;;;;3.80;1.20;;;1.90;99.90;;;;;;4987754;28;20066;-71
2023/03/07 10:59:33;;;;;;;3.33;1.40;;;2.00;99.90;;;;;;4993573;28;20050;-71
2023/03/07 11:02:00;;;;;;;8.15;1.90;;;2.10;99.90;;;;;;4996123;28;20132;-71
2023/03/07 11:04:27;;;;;;;5.18;1.63;;;2.00;99.90;;;;;;4993203;28;20050;-71
2023/03/07 11:06:54;;;;;;;5.82;1.38;;;1.90;99.90;;;;;;4980474;28;20073;-71
2023/03/07 11:09:27;;;;;;;5.80;1.42;;;1.80;99.90;;;;;;5012340;28;20046;-71
2023/03/07 11:12:03;;;;;;;2.25;1.20;;;1.80;99.90;;;;;;5013629;28;20044;-71
2023/03/07 11:14:30;;;;;;;3.90;1.40;;;1.80;99.90;;;;;;4981045;28;20054;-71
2023/03/07 11:17:00;;;;;;;5.07;1.15;;;1.80;99.90;;;;;;4996073;28;20046;-71
2023/03/07 11:19:42;;;;;;;3.92;1.40;;;1.80;99.90;;;;;;5012362;28;20050;-71
2023/03/07 11:22:35;;;;;;;4.43;1.70;;;1.80;99.90;;;;;;5012354;28;20050;-71
2023/03/07 11:25:17;;;;;;;4.18;1.85;;;1.70;99.90;;;;;;4997650;28;20046;-71
2023/03/07 11:27:54;;;;;;;3.63;1.70;;;1.70;99.90;;;;;;5011925;28;20042;-72
2023/03/07 11:30:50;;;;;;;4.35;1.65;;;1.60;99.90;;;;;;4995871;28;20056;-72
2023/03/07 11:33:18;;;;;;;5.13;1.88;;;1.60;99.90;;;;;;5012044;28;20046;-71
2023/03/07 11:35:46;;;;;;;6.47;1.70;;;1.70;99.90;;;;;;5008947;28;20108;-71
2023/03/07 11:38:27;;;;;;;2.35;1.40;;;1.70;99.90;;;;;;4997705;28;20041;-71
2023/03/07 11:40:59;;;;;;;7.15;1.70;;;1.80;99.90;;;;;;5012770;28;20050;-71
2023/03/07 11:43:33;;;;;;;8.07;2.08;;;1.80;99.90;;;;;;5011910;28;20034;-71
2023/03/07 11:46:28;;;;;;;6.40;1.90;;;1.70;99.90;;;;;;5009769;28;20149;-71
2023/03/07 11:49:21;;;;;;;7.03;1.92;;;1.70;99.90;;;;;;5007365;28;20042;-71
2023/03/07 11:51:49;;;;;;;4.10;1.75;;;1.70;99.90;;;;;;5011780;28;20111;-72
2023/03/07 11:54:28;;;;;;;6.65;1.67;;;1.70;99.90;;;;;;5008289;28;20053;-71
2023/03/07 11:56:57;;;;;;;4.05;1.58;;;1.80;99.90;;;;;;5021919;28;20046;-71
2023/03/07 11:59:58;;;;;;;;;;;1.80;99.90;;;;;;5012165;28;20530;-71
2023/03/07 12:02:46;;;;;;;3.92;1.30;;;1.80;99.90;;;;;;4951933;28;19937;-71
2023/03/07 12:05:32;;;;;;;7.20;2.40;;;1.90;99.90;;;;;;4992315;28;20129;-71
2023/03/07 12:08:18;;;;;;;3.83;1.58;;;1.80;99.90;;;;;;4994304;28;20124;-70
2023/03/07 12:11:02;;;;;;;5.22;2.10;;;2.00;99.90;;;;;;4972565;28;20053;-72
2023/03/07 12:13:37;;;;;;;2.47;1.50;;;1.80;99.90;;;;;;4994563;28;20070;-72
2023/03/07 12:16:10;;;;;;;2.88;1.42;;;1.90;99.90;;;;;;5009631;28;20143;-72
2023/03/07 12:19:13;;;;;;;8.10;2.70;;;1.90;99.90;;;;;;5011694;28;20037;-72
2023/03/07 12:22:00;;;;;;;3.70;2.63;;;2.00;99.90;;;;;;5009179;28;20108;-73
2023/03/07 12:24:39;;;;;;;5.57;3.65;;;2.00;99.90;;;;;;5012101;28;20042;-72
2023/03/07 12:27:22;;;;;;;3.90;1.90;;;2.00;99.90;;;;;;5011422;28;20061;-73
2023/03/07 12:29:53;;;;;;;4.53;1.77;;;1.90;99.90;;;;;;4994591;28;20053;-72
2023/03/07 12:32:22;;;;;;;3.50;1.73;;;1.90;99.90;;;;;;4991565;28;20441;-72
2023/03/07 12:34:58;;;;;;;6.05;2.10;;;2.00;99.90;;;;;;5005520;28;20109;-72
2023/03/07 12:37:43;;;;;;;6.05;2.05;;;2.00;99.90;;;;;;5009980;28;20050;-72
2023/03/07 12:40:46;;;;;;;3.88;1.88;;;2.00;99.90;;;;;;5010085;28;20049;-72
2023/03/07 12:43:18;;;;;;;2.90;1.60;;;2.10;99.90;;;;;;4919187;29;20146;-70
2023/03/07 12:45:59;;;;;;;4.00;1.88;;;2.10;99.90;;;;;;4992598;28;20574;-69
2023/03/07 12:48:46;;;;;;;3.90;1.90;;;2.20;99.90;;;;;;4988261;28;20052;-70
2023/03/07 12:51:25;;;;;;;7.00;1.60;;;2.20;99.90;;;;;;4987687;28;20076;-70
2023/03/07 12:53:57;;;;;;;3.95;1.63;;;2.20;99.90;;;;;;4991997;28;20049;-70
2023/03/07 12:56:31;;;;;;;4.25;1.70;;;2.20;99.90;;;;;;4991984;28;20057;-71
2023/03/07 12:59:10;;;;;;;5.30;1.95;;;2.10;99.90;;;;;;5009541;28;20049;-71